BOV557 SAEZ-SLUY
Flight info
| Callsign | BOV557 |
|---|---|
| Flight time | 2h 20m |
| Altitude | 34000 |
| Route | BIVAM2A BIVAM UW8 ERE UT672 JUJ UM776 AKVAG |
| Aircraft | B738/M-SDE2E3FGHIRWXY/LB1 |
Departure
| Time | 2026-05-03 21:55 |
|---|---|
| Airport | Ezeiza International Airport - Ministro Pistarini (SAEZ) |
Arrival
| Time | 2026-05-04 00:15 |
|---|---|
| Airport | Joya Andina International Airport (SLUY) |
| Time | Latitude | Longitude | Altitude | Speed | Heading |
|---|---|---|---|---|---|
| 2026-05-03 21:14 | -34.81597 | -58.53989 | 70 ft | 0 kts | 321° |
| 2026-05-03 21:25 | -34.81612 | -58.53974 | 63 ft | 0 kts | 321° |
| 2026-05-03 21:34 | -34.81618 | -58.53968 | 65 ft | 4 kts | 321° |
| 2026-05-03 21:35 | -34.81639 | -58.53947 | 63 ft | 4 kts | 321° |
| 2026-05-03 21:35 | -34.81660 | -58.53927 | 63 ft | 4 kts | 317° |
| 2026-05-03 21:35 | -34.81679 | -58.53904 | 64 ft | 4 kts | 311° |
| 2026-05-03 21:35 | -34.81697 | -58.53879 | 68 ft | 4 kts | 322° |
| 2026-05-03 21:36 | -34.81710 | -58.53867 | 64 ft | 4 kts | 47° |
| 2026-05-03 21:36 | -34.81719 | -58.53886 | 64 ft | 4 kts | 60° |
| 2026-05-03 21:36 | -34.81723 | -58.53894 | 71 ft | 1 kts | 60° |
| 2026-05-03 21:45 | -34.81723 | -58.53895 | 74 ft | 0 kts | 60° |
| 2026-05-03 21:49 | -34.81723 | -58.53894 | 74 ft | 1 kts | 60° |
| 2026-05-03 21:49 | -34.81705 | -58.53856 | 72 ft | 9 kts | 60° |
| 2026-05-03 21:49 | -34.81700 | -58.53842 | 72 ft | 2 kts | 71° |
| 2026-05-03 21:49 | -34.81704 | -58.53788 | 73 ft | 12 kts | 110° |
| 2026-05-03 21:50 | -34.81769 | -58.53708 | 72 ft | 14 kts | 152° |
| 2026-05-03 21:50 | -34.81853 | -58.53659 | 71 ft | 13 kts | 151° |
| 2026-05-03 21:50 | -34.81914 | -58.53583 | 70 ft | 13 kts | 116° |
| 2026-05-03 21:50 | -34.81939 | -58.53460 | 67 ft | 17 kts | 103° |
| 2026-05-03 21:51 | -34.81968 | -58.53309 | 66 ft | 21 kts | 103° |
| 2026-05-03 21:51 | -34.82005 | -58.53128 | 76 ft | 22 kts | 103° |
| 2026-05-03 21:51 | -34.82070 | -58.52970 | 79 ft | 21 kts | 151° |
| 2026-05-03 21:51 | -34.82211 | -58.52916 | 83 ft | 21 kts | 163° |
| 2026-05-03 21:52 | -34.82367 | -58.52862 | 83 ft | 28 kts | 164° |
| 2026-05-03 21:52 | -34.82581 | -58.52788 | 71 ft | 35 kts | 165° |
| 2026-05-03 21:52 | -34.82808 | -58.52708 | 80 ft | 33 kts | 163° |
| 2026-05-03 21:52 | -34.83017 | -58.52637 | 83 ft | 30 kts | 166° |
| 2026-05-03 21:53 | -34.83211 | -58.52570 | 83 ft | 28 kts | 165° |
| 2026-05-03 21:53 | -34.83394 | -58.52509 | 84 ft | 24 kts | 173° |
| 2026-05-03 21:53 | -34.83479 | -58.52492 | 83 ft | 11 kts | 77° |
| 2026-05-03 21:53 | -34.83431 | -58.52492 | 87 ft | 0 kts | 343° |
| 2026-05-03 21:54 | -34.83391 | -58.52506 | 84 ft | 22 kts | 345° |
| 2026-05-03 21:54 | -34.83001 | -58.52641 | 83 ft | 93 kts | 344° |
| 2026-05-03 21:54 | -34.82173 | -58.52926 | 86 ft | 151 kts | 345° |
| 2026-05-03 21:54 | -34.81084 | -58.53301 | 509 ft | 170 kts | 347° |
| 2026-05-03 21:55 | -34.79933 | -58.53657 | 1435 ft | 164 kts | 346° |
| 2026-05-03 21:55 | -34.78797 | -58.54047 | 2115 ft | 180 kts | 345° |
| 2026-05-03 21:55 | -34.77587 | -58.54735 | 2313 ft | 207 kts | 320° |
| 2026-05-03 21:55 | -34.76834 | -58.56291 | 2744 ft | 226 kts | 284° |
| 2026-05-03 21:56 | -34.76936 | -58.58267 | 3178 ft | 245 kts | 264° |
| 2026-05-03 21:56 | -34.77236 | -58.60354 | 3724 ft | 255 kts | 264° |
| 2026-05-03 21:56 | -34.77533 | -58.62467 | 4631 ft | 253 kts | 263° |
| 2026-05-03 21:56 | -34.77824 | -58.64592 | 5448 ft | 256 kts | 263° |
| 2026-05-03 21:57 | -34.78072 | -58.66741 | 6259 ft | 257 kts | 271° |
| 2026-05-03 21:57 | -34.77685 | -58.68834 | 6988 ft | 257 kts | 298° |
| 2026-05-03 21:57 | -34.76495 | -58.70446 | 7737 ft | 262 kts | 325° |
| 2026-05-03 21:57 | -34.74765 | -58.71238 | 8457 ft | 272 kts | 346° |
| 2026-05-03 21:58 | -34.72865 | -58.71551 | 9177 ft | 278 kts | 349° |
| 2026-05-03 21:58 | -34.70947 | -58.71788 | 9881 ft | 283 kts | 350° |
| 2026-05-03 21:58 | -34.68949 | -58.72078 | 10490 ft | 288 kts | 344° |
| 2026-05-03 21:58 | -34.67178 | -58.72589 | 10984 ft | 293 kts | 340° |
| 2026-05-03 21:59 | -34.65240 | -58.73241 | 11449 ft | 303 kts | 340° |
| 2026-05-03 21:59 | -34.63202 | -58.73938 | 11981 ft | 311 kts | 340° |
| 2026-05-03 21:59 | -34.61096 | -58.74646 | 12598 ft | 316 kts | 340° |
| 2026-05-03 21:59 | -34.58962 | -58.75348 | 13282 ft | 319 kts | 340° |
| 2026-05-03 22:00 | -34.56810 | -58.76042 | 13968 ft | 322 kts | 340° |
| 2026-05-03 22:00 | -34.54635 | -58.76734 | 14587 ft | 324 kts | 340° |
| 2026-05-03 22:00 | -34.52440 | -58.77426 | 15212 ft | 327 kts | 340° |
| 2026-05-03 22:00 | -34.50227 | -58.78121 | 15823 ft | 330 kts | 340° |
| 2026-05-03 22:01 | -34.47996 | -58.78818 | 16429 ft | 333 kts | 340° |
| 2026-05-03 22:01 | -34.45746 | -58.79520 | 17036 ft | 336 kts | 339° |
| 2026-05-03 22:01 | -34.43452 | -58.80236 | 17459 ft | 345 kts | 339° |
| 2026-05-03 22:01 | -34.41105 | -58.80968 | 17985 ft | 350 kts | 339° |
| 2026-05-03 22:02 | -34.38741 | -58.81702 | 18538 ft | 352 kts | 339° |
| 2026-05-03 22:02 | -34.36358 | -58.82441 | 19054 ft | 355 kts | 339° |
| 2026-05-03 22:02 | -34.33960 | -58.83183 | 19598 ft | 357 kts | 339° |
| 2026-05-03 22:02 | -34.31549 | -58.83929 | 20147 ft | 358 kts | 339° |
| 2026-05-03 22:03 | -34.29127 | -58.84679 | 20671 ft | 361 kts | 339° |
| 2026-05-03 22:03 | -34.26715 | -58.85426 | 21160 ft | 364 kts | 339° |
| 2026-05-03 22:03 | -34.24258 | -58.86187 | 21648 ft | 367 kts | 339° |
| 2026-05-03 22:03 | -34.21773 | -58.86956 | 22106 ft | 371 kts | 339° |
| 2026-05-03 22:04 | -34.19257 | -58.87734 | 22542 ft | 375 kts | 339° |
| 2026-05-03 22:04 | -34.16721 | -58.88518 | 22972 ft | 378 kts | 339° |
| 2026-05-03 22:04 | -34.14158 | -58.89309 | 23438 ft | 381 kts | 339° |
| 2026-05-03 22:04 | -34.11582 | -58.90102 | 23902 ft | 383 kts | 339° |
| 2026-05-03 22:05 | -34.08994 | -58.90899 | 24312 ft | 385 kts | 339° |
| 2026-05-03 22:05 | -34.06387 | -58.91703 | 24642 ft | 390 kts | 339° |
| 2026-05-03 22:05 | -34.03749 | -58.92515 | 25033 ft | 392 kts | 339° |
| 2026-05-03 22:05 | -34.01098 | -58.93331 | 25389 ft | 395 kts | 339° |
| 2026-05-03 22:06 | -33.98427 | -58.94172 | 25717 ft | 397 kts | 336° |
| 2026-05-03 22:06 | -33.95876 | -58.95385 | 26035 ft | 392 kts | 325° |
| 2026-05-03 22:06 | -33.93532 | -58.97034 | 26413 ft | 390 kts | 322° |
| 2026-05-03 22:06 | -33.91215 | -58.98750 | 26803 ft | 391 kts | 321° |
| 2026-05-03 22:07 | -33.88895 | -59.00480 | 27170 ft | 393 kts | 321° |
| 2026-05-03 22:07 | -33.86560 | -59.02218 | 27515 ft | 396 kts | 321° |
| 2026-05-03 22:07 | -33.84203 | -59.03961 | 27861 ft | 398 kts | 321° |
| 2026-05-03 22:07 | -33.81834 | -59.05703 | 28250 ft | 399 kts | 321° |
| 2026-05-03 22:08 | -33.79458 | -59.07442 | 28585 ft | 402 kts | 321° |
| 2026-05-03 22:08 | -33.77057 | -59.09196 | 28815 ft | 406 kts | 321° |
| 2026-05-03 22:08 | -33.74630 | -59.10966 | 29094 ft | 409 kts | 321° |
| 2026-05-03 22:08 | -33.72193 | -59.12740 | 29424 ft | 411 kts | 321° |
| 2026-05-03 22:09 | -33.69770 | -59.14501 | 29717 ft | 414 kts | 321° |
| 2026-05-03 22:09 | -33.67297 | -59.16297 | 30000 ft | 416 kts | 321° |
| 2026-05-03 22:09 | -33.64808 | -59.18103 | 30267 ft | 418 kts | 321° |
| 2026-05-03 22:10 | -33.59815 | -59.21721 | 30800 ft | 421 kts | 321° |
| 2026-05-03 22:10 | -33.57303 | -59.23541 | 31004 ft | 423 kts | 321° |
| 2026-05-03 22:10 | -33.54773 | -59.25373 | 31231 ft | 425 kts | 321° |
| 2026-05-03 22:10 | -33.52235 | -59.27209 | 31484 ft | 427 kts | 321° |
| 2026-05-03 22:11 | -33.49688 | -59.29050 | 31716 ft | 428 kts | 321° |
| 2026-05-03 22:11 | -33.47133 | -59.30896 | 31931 ft | 430 kts | 321° |
| 2026-05-03 22:11 | -33.44564 | -59.32751 | 32176 ft | 431 kts | 321° |
| 2026-05-03 22:11 | -33.42001 | -59.34598 | 32536 ft | 429 kts | 321° |
| 2026-05-03 22:12 | -33.39447 | -59.36436 | 32849 ft | 427 kts | 321° |
| 2026-05-03 22:12 | -33.36899 | -59.38271 | 33056 ft | 429 kts | 321° |
| 2026-05-03 22:12 | -33.34338 | -59.40116 | 33297 ft | 430 kts | 321° |
| 2026-05-03 22:12 | -33.31783 | -59.41954 | 33599 ft | 428 kts | 321° |
| 2026-05-03 22:13 | -33.29230 | -59.43789 | 33927 ft | 427 kts | 320° |
| 2026-05-03 22:13 | -33.26686 | -59.45617 | 34082 ft | 429 kts | 320° |
| 2026-05-03 22:13 | -33.24105 | -59.47473 | 34066 ft | 433 kts | 320° |
| 2026-05-03 22:14 | -33.18881 | -59.51227 | 34063 ft | 441 kts | 321° |
| 2026-05-03 22:14 | -33.13570 | -59.55033 | 34079 ft | 449 kts | 321° |
| 2026-05-03 22:15 | -33.08195 | -59.58877 | 34078 ft | 457 kts | 321° |
| 2026-05-03 22:15 | -33.02700 | -59.62800 | 34075 ft | 463 kts | 321° |
| 2026-05-03 22:16 | -32.97131 | -59.66769 | 34071 ft | 469 kts | 321° |
| 2026-05-03 22:16 | -32.91506 | -59.70771 | 34066 ft | 472 kts | 321° |
| 2026-05-03 22:17 | -32.85855 | -59.74787 | 34059 ft | 473 kts | 321° |
| 2026-05-03 22:17 | -32.80197 | -59.78802 | 34046 ft | 474 kts | 321° |
| 2026-05-03 22:18 | -32.74569 | -59.82791 | 34053 ft | 474 kts | 321° |
| 2026-05-03 22:18 | -32.68909 | -59.86798 | 34057 ft | 473 kts | 321° |
| 2026-05-03 22:19 | -32.63247 | -59.90800 | 34071 ft | 472 kts | 321° |
| 2026-05-03 22:19 | -32.57607 | -59.94781 | 34052 ft | 471 kts | 321° |
| 2026-05-03 22:20 | -32.51980 | -59.98748 | 34057 ft | 470 kts | 321° |
| 2026-05-03 22:20 | -32.46365 | -60.02703 | 34057 ft | 469 kts | 321° |
| 2026-05-03 22:21 | -32.40755 | -60.06652 | 34036 ft | 469 kts | 322° |
| 2026-05-03 22:21 | -32.35136 | -60.10600 | 34051 ft | 470 kts | 322° |
| 2026-05-03 22:22 | -32.29511 | -60.14547 | 34062 ft | 471 kts | 322° |
| 2026-05-03 22:22 | -32.23905 | -60.18475 | 34051 ft | 471 kts | 322° |
| 2026-05-03 22:23 | -32.18263 | -60.22420 | 34051 ft | 471 kts | 322° |
| 2026-05-03 22:23 | -32.12617 | -60.26364 | 34049 ft | 471 kts | 322° |
| 2026-05-03 22:24 | -32.06966 | -60.30306 | 34063 ft | 471 kts | 322° |
| 2026-05-03 22:24 | -32.01313 | -60.34243 | 34036 ft | 471 kts | 322° |
| 2026-05-03 22:25 | -31.95667 | -60.38170 | 34046 ft | 471 kts | 322° |
| 2026-05-03 22:25 | -31.90020 | -60.42092 | 34051 ft | 471 kts | 322° |
| 2026-05-03 22:26 | -31.84371 | -60.46011 | 34050 ft | 472 kts | 322° |
| 2026-05-03 22:26 | -31.78742 | -60.49951 | 34039 ft | 469 kts | 320° |
| 2026-05-03 22:27 | -31.73310 | -60.54086 | 34048 ft | 468 kts | 319° |
| 2026-05-03 22:27 | -31.67879 | -60.58301 | 34048 ft | 468 kts | 319° |
| 2026-05-03 22:28 | -31.62427 | -60.62487 | 34036 ft | 468 kts | 319° |
| 2026-05-03 22:28 | -31.56966 | -60.66642 | 34047 ft | 468 kts | 320° |
| 2026-05-03 22:29 | -31.51496 | -60.70790 | 34047 ft | 468 kts | 320° |
| 2026-05-03 22:29 | -31.46028 | -60.74931 | 34053 ft | 468 kts | 320° |
| 2026-05-03 22:30 | -31.40555 | -60.79072 | 34030 ft | 468 kts | 320° |
| 2026-05-03 22:30 | -31.35094 | -60.83199 | 34044 ft | 467 kts | 320° |
| 2026-05-03 22:31 | -31.29624 | -60.87327 | 34049 ft | 467 kts | 320° |
| 2026-05-03 22:31 | -31.25083 | -60.90749 | 34045 ft | 468 kts | 320° |
| 2026-05-03 22:32 | -31.18690 | -60.95561 | 34038 ft | 467 kts | 320° |
| 2026-05-03 22:32 | -31.14136 | -60.98984 | 34041 ft | 467 kts | 320° |
| 2026-05-03 22:33 | -31.08666 | -61.03091 | 34038 ft | 467 kts | 320° |
| 2026-05-03 22:33 | -31.03198 | -61.07189 | 34050 ft | 467 kts | 320° |
| 2026-05-03 22:34 | -30.97765 | -61.11246 | 34034 ft | 466 kts | 320° |
| 2026-05-03 22:34 | -30.92306 | -61.15312 | 34041 ft | 465 kts | 320° |
| 2026-05-03 22:35 | -30.86817 | -61.19398 | 34045 ft | 465 kts | 320° |
| 2026-05-03 22:35 | -30.81404 | -61.23423 | 34043 ft | 465 kts | 320° |
| 2026-05-03 22:36 | -30.75948 | -61.27474 | 34036 ft | 464 kts | 320° |
| 2026-05-03 22:36 | -30.70501 | -61.31513 | 34041 ft | 464 kts | 320° |
| 2026-05-03 22:37 | -30.65059 | -61.35544 | 34041 ft | 463 kts | 320° |
| 2026-05-03 22:37 | -30.59627 | -61.39561 | 34039 ft | 463 kts | 320° |
| 2026-05-03 22:38 | -30.54227 | -61.43550 | 34036 ft | 462 kts | 320° |
| 2026-05-03 22:38 | -30.48798 | -61.47554 | 34039 ft | 462 kts | 320° |
| 2026-05-03 22:39 | -30.43406 | -61.51526 | 34037 ft | 462 kts | 320° |
| 2026-05-03 22:39 | -30.37949 | -61.55541 | 34025 ft | 462 kts | 320° |
| 2026-05-03 22:40 | -30.32532 | -61.59519 | 34026 ft | 460 kts | 320° |
| 2026-05-03 22:40 | -30.27160 | -61.63461 | 34030 ft | 459 kts | 320° |
| 2026-05-03 22:41 | -30.21756 | -61.67421 | 34032 ft | 459 kts | 320° |
| 2026-05-03 22:41 | -30.16358 | -61.71371 | 34010 ft | 459 kts | 320° |
| 2026-05-03 22:42 | -30.10968 | -61.75311 | 34028 ft | 458 kts | 320° |
| 2026-05-03 22:42 | -30.05573 | -61.79249 | 34031 ft | 458 kts | 320° |
| 2026-05-03 22:43 | -30.00205 | -61.83162 | 34029 ft | 459 kts | 320° |
| 2026-05-03 22:43 | -29.94812 | -61.87089 | 34002 ft | 459 kts | 320° |
| 2026-05-03 22:44 | -29.89412 | -61.91016 | 34024 ft | 459 kts | 320° |
| 2026-05-03 22:44 | -29.83897 | -61.94779 | 34033 ft | 463 kts | 323° |
| 2026-05-03 22:45 | -29.78202 | -61.98255 | 34023 ft | 464 kts | 324° |
| 2026-05-03 22:45 | -29.72480 | -62.01712 | 34016 ft | 464 kts | 324° |
| 2026-05-03 22:46 | -29.66781 | -62.05193 | 34029 ft | 463 kts | 324° |
| 2026-05-03 22:46 | -29.61093 | -62.08686 | 34021 ft | 463 kts | 324° |
| 2026-05-03 22:47 | -29.55396 | -62.12187 | 34025 ft | 464 kts | 324° |
| 2026-05-03 22:47 | -29.49745 | -62.15654 | 34003 ft | 464 kts | 324° |
| 2026-05-03 22:48 | -29.44059 | -62.19136 | 34012 ft | 463 kts | 324° |
| 2026-05-03 22:48 | -29.38372 | -62.22614 | 34021 ft | 463 kts | 324° |
| 2026-05-03 22:49 | -29.32679 | -62.26092 | 34026 ft | 463 kts | 324° |
| 2026-05-03 22:49 | -29.26994 | -62.29560 | 33993 ft | 463 kts | 324° |
| 2026-05-03 22:50 | -29.21314 | -62.33020 | 34014 ft | 462 kts | 324° |
| 2026-05-03 22:50 | -29.15647 | -62.36469 | 34023 ft | 462 kts | 324° |
| 2026-05-03 22:51 | -29.09968 | -62.39921 | 34022 ft | 461 kts | 324° |
| 2026-05-03 22:51 | -29.04331 | -62.43343 | 34003 ft | 461 kts | 324° |
| 2026-05-03 22:52 | -28.98626 | -62.46801 | 34010 ft | 461 kts | 324° |
| 2026-05-03 22:52 | -28.92960 | -62.50233 | 34022 ft | 461 kts | 324° |
| 2026-05-03 22:53 | -28.87331 | -62.53639 | 34011 ft | 461 kts | 324° |
| 2026-05-03 22:53 | -28.81665 | -62.57058 | 33998 ft | 460 kts | 324° |
| 2026-05-03 22:54 | -28.75990 | -62.60458 | 34013 ft | 460 kts | 324° |
| 2026-05-03 22:54 | -28.70322 | -62.63844 | 34017 ft | 460 kts | 324° |
| 2026-05-03 22:55 | -28.64645 | -62.67234 | 34014 ft | 460 kts | 324° |
| 2026-05-03 22:55 | -28.58969 | -62.70622 | 33989 ft | 461 kts | 324° |
| 2026-05-03 22:56 | -28.53294 | -62.74005 | 34012 ft | 461 kts | 324° |
| 2026-05-03 22:56 | -28.47598 | -62.77397 | 34017 ft | 462 kts | 324° |
| 2026-05-03 22:57 | -28.41894 | -62.80789 | 34014 ft | 463 kts | 324° |
| 2026-05-03 22:57 | -28.36214 | -62.84163 | 34015 ft | 464 kts | 324° |
| 2026-05-03 22:58 | -28.30490 | -62.87558 | 34017 ft | 464 kts | 324° |
| 2026-05-03 22:58 | -28.24761 | -62.90952 | 34010 ft | 464 kts | 324° |
| 2026-05-03 22:59 | -28.19031 | -62.94343 | 34011 ft | 464 kts | 324° |
| 2026-05-03 22:59 | -28.13310 | -62.97725 | 34008 ft | 464 kts | 324° |
| 2026-05-03 23:00 | -28.07576 | -63.01109 | 34004 ft | 464 kts | 324° |
| 2026-05-03 23:00 | -28.01878 | -63.04470 | 34013 ft | 465 kts | 324° |
| 2026-05-03 23:01 | -27.96133 | -63.07854 | 34010 ft | 466 kts | 324° |
| 2026-05-03 23:01 | -27.90385 | -63.11234 | 34011 ft | 466 kts | 324° |
| 2026-05-03 23:02 | -27.84625 | -63.14618 | 34000 ft | 466 kts | 324° |
| 2026-05-03 23:02 | -27.78864 | -63.18000 | 34005 ft | 467 kts | 324° |
| 2026-05-03 23:03 | -27.73093 | -63.21382 | 34006 ft | 467 kts | 324° |
| 2026-05-03 23:03 | -27.67321 | -63.24760 | 34005 ft | 468 kts | 324° |
| 2026-05-03 23:04 | -27.61536 | -63.28143 | 34000 ft | 467 kts | 324° |
| 2026-05-03 23:04 | -27.55754 | -63.31519 | 34003 ft | 468 kts | 324° |
| 2026-05-03 23:05 | -27.49977 | -63.34889 | 34003 ft | 468 kts | 324° |
| 2026-05-03 23:05 | -27.44197 | -63.38256 | 34001 ft | 468 kts | 324° |
| 2026-05-03 23:06 | -27.38404 | -63.41628 | 33986 ft | 468 kts | 324° |
| 2026-05-03 23:06 | -27.32662 | -63.44964 | 33999 ft | 468 kts | 324° |
| 2026-05-03 23:07 | -27.26880 | -63.48321 | 33998 ft | 467 kts | 324° |
| 2026-05-03 23:07 | -27.21098 | -63.51675 | 33997 ft | 467 kts | 324° |
| 2026-05-03 23:08 | -27.15312 | -63.55026 | 33990 ft | 467 kts | 324° |
| 2026-05-03 23:08 | -27.09537 | -63.58368 | 33999 ft | 466 kts | 324° |
| 2026-05-03 23:09 | -27.03762 | -63.61706 | 34000 ft | 466 kts | 324° |
| 2026-05-03 23:09 | -26.97997 | -63.65027 | 33998 ft | 466 kts | 325° |
| 2026-05-03 23:10 | -26.92258 | -63.68314 | 33972 ft | 466 kts | 325° |
| 2026-05-03 23:10 | -26.86488 | -63.71615 | 33989 ft | 465 kts | 325° |
| 2026-05-03 23:11 | -26.80714 | -63.74918 | 33991 ft | 465 kts | 325° |
| 2026-05-03 23:11 | -26.74952 | -63.78212 | 33989 ft | 465 kts | 325° |
| 2026-05-03 23:12 | -26.69187 | -63.81501 | 33990 ft | 465 kts | 325° |
| 2026-05-03 23:12 | -26.63424 | -63.84774 | 33990 ft | 465 kts | 325° |
| 2026-05-03 23:13 | -26.57655 | -63.88043 | 34007 ft | 465 kts | 325° |
| 2026-05-03 23:13 | -26.51877 | -63.91317 | 34002 ft | 465 kts | 325° |
| 2026-05-03 23:14 | -26.46095 | -63.94589 | 34006 ft | 466 kts | 325° |
| 2026-05-03 23:14 | -26.40348 | -63.97838 | 34001 ft | 466 kts | 325° |
| 2026-05-03 23:15 | -26.34559 | -64.01108 | 34006 ft | 467 kts | 325° |
| 2026-05-03 23:15 | -26.28744 | -64.04389 | 34010 ft | 468 kts | 326° |
| 2026-05-03 23:16 | -26.22936 | -64.07661 | 34015 ft | 468 kts | 326° |
| 2026-05-03 23:16 | -26.17129 | -64.10931 | 33998 ft | 468 kts | 326° |
| 2026-05-03 23:17 | -26.11324 | -64.14196 | 34011 ft | 467 kts | 326° |
| 2026-05-03 23:17 | -26.05528 | -64.17450 | 34016 ft | 466 kts | 326° |
| 2026-05-03 23:18 | -25.99742 | -64.20694 | 34016 ft | 466 kts | 326° |
| 2026-05-03 23:18 | -25.93956 | -64.23935 | 34018 ft | 465 kts | 326° |
| 2026-05-03 23:19 | -25.89145 | -64.26628 | 34027 ft | 465 kts | 326° |
| 2026-05-03 23:19 | -25.82424 | -64.30386 | 34032 ft | 465 kts | 326° |
| 2026-05-03 23:20 | -25.76640 | -64.33616 | 34037 ft | 465 kts | 326° |
| 2026-05-03 23:20 | -25.71792 | -64.36321 | 34030 ft | 465 kts | 326° |
| 2026-05-03 23:21 | -25.66045 | -64.39524 | 34032 ft | 465 kts | 326° |
| 2026-05-03 23:21 | -25.60271 | -64.42738 | 34039 ft | 464 kts | 326° |
| 2026-05-03 23:22 | -25.51596 | -64.47562 | 34040 ft | 465 kts | 326° |
| 2026-05-03 23:22 | -25.45811 | -64.50774 | 34046 ft | 465 kts | 326° |
| 2026-05-03 23:23 | -25.40033 | -64.53977 | 34043 ft | 464 kts | 327° |
| 2026-05-03 23:23 | -25.34262 | -64.57174 | 34052 ft | 463 kts | 327° |
| 2026-05-03 23:24 | -25.28504 | -64.60361 | 34055 ft | 462 kts | 327° |
| 2026-05-03 23:24 | -25.22754 | -64.63540 | 34069 ft | 462 kts | 327° |
| 2026-05-03 23:25 | -25.17008 | -64.66714 | 34052 ft | 462 kts | 327° |
| 2026-05-03 23:25 | -25.11293 | -64.69866 | 34064 ft | 461 kts | 327° |
| 2026-05-03 23:26 | -25.05551 | -64.73031 | 34064 ft | 461 kts | 327° |
| 2026-05-03 23:26 | -24.99806 | -64.76193 | 34073 ft | 461 kts | 327° |
| 2026-05-03 23:27 | -24.94062 | -64.79353 | 34079 ft | 462 kts | 327° |
| 2026-05-03 23:27 | -24.88320 | -64.82508 | 34079 ft | 461 kts | 327° |
| 2026-05-03 23:28 | -24.82585 | -64.85654 | 34072 ft | 459 kts | 327° |
| 2026-05-03 23:28 | -24.76875 | -64.88783 | 34098 ft | 458 kts | 327° |
| 2026-05-03 23:29 | -24.71177 | -64.91905 | 34082 ft | 458 kts | 327° |
| 2026-05-03 23:29 | -24.65471 | -64.95027 | 34078 ft | 457 kts | 327° |
| 2026-05-03 23:30 | -24.59781 | -64.98137 | 34089 ft | 456 kts | 328° |
| 2026-05-03 23:30 | -24.54103 | -65.01237 | 34080 ft | 455 kts | 328° |
| 2026-05-03 23:31 | -24.48463 | -65.04314 | 34077 ft | 455 kts | 328° |
| 2026-05-03 23:31 | -24.42798 | -65.07402 | 34076 ft | 454 kts | 328° |
| 2026-05-03 23:32 | -24.37086 | -65.10395 | 34068 ft | 457 kts | 331° |
| 2026-05-03 23:32 | -24.31195 | -65.13056 | 34078 ft | 458 kts | 333° |
| 2026-05-03 23:33 | -24.25274 | -65.15661 | 34081 ft | 458 kts | 332° |
| 2026-05-03 23:33 | -24.19363 | -65.18293 | 34085 ft | 459 kts | 332° |
| 2026-05-03 23:34 | -24.13465 | -65.20945 | 34095 ft | 458 kts | 332° |
| 2026-05-03 23:34 | -24.07550 | -65.23605 | 34073 ft | 460 kts | 333° |
| 2026-05-03 23:35 | -24.01667 | -65.26251 | 34054 ft | 461 kts | 333° |
| 2026-05-03 23:35 | -23.95730 | -65.28916 | 34074 ft | 462 kts | 333° |
| 2026-05-03 23:36 | -23.89776 | -65.31585 | 34050 ft | 463 kts | 333° |
| 2026-05-03 23:36 | -23.83817 | -65.34253 | 34030 ft | 463 kts | 333° |
| 2026-05-03 23:37 | -23.77844 | -65.36925 | 34010 ft | 463 kts | 333° |
| 2026-05-03 23:37 | -23.71875 | -65.39585 | 34020 ft | 464 kts | 333° |
| 2026-05-03 23:38 | -23.66104 | -65.42170 | 34025 ft | 465 kts | 333° |
| 2026-05-03 23:38 | -23.60121 | -65.44841 | 34005 ft | 464 kts | 333° |
| 2026-05-03 23:39 | -23.54141 | -65.47506 | 34013 ft | 464 kts | 333° |
| 2026-05-03 23:39 | -23.48163 | -65.50166 | 34007 ft | 464 kts | 333° |
| 2026-05-03 23:40 | -23.42184 | -65.52824 | 34020 ft | 464 kts | 333° |
| 2026-05-03 23:40 | -23.36240 | -65.55467 | 34015 ft | 465 kts | 333° |
| 2026-05-03 23:41 | -23.30250 | -65.58126 | 34013 ft | 464 kts | 333° |
| 2026-05-03 23:41 | -23.24263 | -65.60781 | 34017 ft | 463 kts | 333° |
| 2026-05-03 23:42 | -23.18293 | -65.63426 | 34028 ft | 463 kts | 333° |
| 2026-05-03 23:42 | -23.12329 | -65.66067 | 34021 ft | 463 kts | 333° |
| 2026-05-03 23:43 | -23.06364 | -65.68705 | 34010 ft | 462 kts | 333° |
| 2026-05-03 23:43 | -23.00441 | -65.71322 | 34023 ft | 463 kts | 333° |
| 2026-05-03 23:44 | -22.94459 | -65.73964 | 34026 ft | 464 kts | 333° |
| 2026-05-03 23:44 | -22.88461 | -65.76610 | 34030 ft | 465 kts | 333° |
| 2026-05-03 23:45 | -22.82455 | -65.79256 | 34029 ft | 466 kts | 333° |
| 2026-05-03 23:45 | -22.76477 | -65.81886 | 34023 ft | 466 kts | 333° |
| 2026-05-03 23:46 | -22.70433 | -65.84544 | 34017 ft | 466 kts | 332° |
| 2026-05-03 23:46 | -22.64460 | -65.87168 | 34044 ft | 466 kts | 332° |
| 2026-05-03 23:47 | -22.58443 | -65.89810 | 34035 ft | 467 kts | 332° |
| 2026-05-03 23:47 | -22.52423 | -65.92450 | 34033 ft | 467 kts | 333° |
| 2026-05-03 23:48 | -22.46401 | -65.95088 | 34043 ft | 466 kts | 332° |
| 2026-05-03 23:48 | -22.40406 | -65.97711 | 34027 ft | 464 kts | 332° |
| 2026-05-03 23:49 | -22.34427 | -66.00326 | 34051 ft | 462 kts | 332° |
| 2026-05-03 23:49 | -22.28475 | -66.02927 | 34057 ft | 461 kts | 332° |
| 2026-05-03 23:50 | -22.23536 | -66.05085 | 34045 ft | 461 kts | 332° |
| 2026-05-03 23:50 | -22.16593 | -66.08113 | 34061 ft | 460 kts | 333° |
| 2026-05-03 23:51 | -22.10667 | -66.10695 | 34042 ft | 459 kts | 333° |
| 2026-05-03 23:51 | -22.04740 | -66.13274 | 34070 ft | 459 kts | 333° |
| 2026-05-03 23:52 | -21.98813 | -66.15852 | 34077 ft | 459 kts | 333° |
| 2026-05-03 23:52 | -21.92923 | -66.18413 | 34071 ft | 460 kts | 333° |
| 2026-05-03 23:53 | -21.86981 | -66.20994 | 34060 ft | 461 kts | 333° |
| 2026-05-03 23:53 | -21.81018 | -66.23581 | 34067 ft | 462 kts | 333° |
| 2026-05-03 23:54 | -21.75061 | -66.26203 | 34095 ft | 463 kts | 333° |
| 2026-05-03 23:54 | -21.69108 | -66.28865 | 34100 ft | 464 kts | 333° |
| 2026-05-03 23:55 | -21.63138 | -66.31532 | 34076 ft | 464 kts | 333° |
| 2026-05-03 23:55 | -21.57164 | -66.34190 | 34099 ft | 465 kts | 333° |
| 2026-05-03 23:56 | -21.51177 | -66.36848 | 34101 ft | 466 kts | 333° |
| 2026-05-03 23:56 | -21.45224 | -66.39488 | 34114 ft | 466 kts | 333° |
| 2026-05-03 23:57 | -21.39235 | -66.42142 | 34116 ft | 466 kts | 333° |
| 2026-05-03 23:57 | -21.33241 | -66.44796 | 34102 ft | 466 kts | 332° |
| 2026-05-03 23:58 | -21.30271 | -66.46108 | 34056 ft | 454 kts | 332° |
| 2026-05-03 23:58 | -21.27412 | -66.47364 | 33922 ft | 433 kts | 332° |
| 2026-05-03 23:58 | -21.24687 | -66.48561 | 33807 ft | 414 kts | 332° |
| 2026-05-03 23:58 | -21.22068 | -66.49714 | 33564 ft | 400 kts | 332° |
| 2026-05-03 23:59 | -21.19515 | -66.50844 | 33016 ft | 395 kts | 332° |
| 2026-05-03 23:59 | -21.16977 | -66.51970 | 32324 ft | 394 kts | 333° |
| 2026-05-03 23:59 | -21.14451 | -66.53092 | 31690 ft | 392 kts | 333° |
| 2026-05-03 23:59 | -21.11938 | -66.54205 | 31126 ft | 389 kts | 333° |
| 2026-05-04 00:00 | -21.09453 | -66.55303 | 30614 ft | 385 kts | 334° |
| 2026-05-04 00:00 | -21.06985 | -66.56392 | 30079 ft | 381 kts | 334° |
| 2026-05-04 00:00 | -21.04545 | -66.57468 | 29446 ft | 377 kts | 334° |
| 2026-05-04 00:00 | -21.02127 | -66.58534 | 28824 ft | 374 kts | 334° |
| 2026-05-04 00:01 | -20.99755 | -66.59580 | 28180 ft | 372 kts | 335° |
| 2026-05-04 00:01 | -20.97366 | -66.60632 | 27556 ft | 370 kts | 335° |
| 2026-05-04 00:01 | -20.94999 | -66.61675 | 26966 ft | 368 kts | 335° |
| 2026-05-04 00:01 | -20.92638 | -66.62715 | 26388 ft | 365 kts | 336° |
| 2026-05-04 00:02 | -20.90295 | -66.63746 | 25827 ft | 363 kts | 336° |
| 2026-05-04 00:02 | -20.87968 | -66.64770 | 25275 ft | 361 kts | 336° |
| 2026-05-04 00:02 | -20.85651 | -66.65789 | 24737 ft | 359 kts | 336° |
| 2026-05-04 00:02 | -20.83346 | -66.66802 | 24207 ft | 357 kts | 337° |
| 2026-05-04 00:03 | -20.81060 | -66.67806 | 23700 ft | 355 kts | 337° |
| 2026-05-04 00:03 | -20.78768 | -66.68762 | 23108 ft | 352 kts | 343° |
| 2026-05-04 00:03 | -20.76343 | -66.69173 | 22384 ft | 355 kts | 359° |
| 2026-05-04 00:03 | -20.73883 | -66.68928 | 21819 ft | 354 kts | 9° |
| 2026-05-04 00:04 | -20.71497 | -66.68461 | 21559 ft | 342 kts | 10° |
| 2026-05-04 00:04 | -20.69209 | -66.67902 | 21228 ft | 334 kts | 19° |
| 2026-05-04 00:04 | -20.67084 | -66.66966 | 20964 ft | 325 kts | 24° |
| 2026-05-04 00:04 | -20.65068 | -66.65961 | 20706 ft | 316 kts | 25° |
| 2026-05-04 00:05 | -20.63201 | -66.64832 | 20387 ft | 309 kts | 41° |
| 2026-05-04 00:05 | -20.61878 | -66.63071 | 19975 ft | 304 kts | 67° |
| 2026-05-04 00:05 | -20.61358 | -66.60918 | 19514 ft | 299 kts | 90° |
| 2026-05-04 00:05 | -20.61659 | -66.58765 | 19049 ft | 292 kts | 117° |
| 2026-05-04 00:06 | -20.62780 | -66.57020 | 18602 ft | 284 kts | 143° |
| 2026-05-04 00:06 | -20.64468 | -66.56034 | 18167 ft | 275 kts | 168° |
| 2026-05-04 00:06 | -20.66374 | -66.55774 | 17498 ft | 279 kts | 178° |
| 2026-05-04 00:06 | -20.68345 | -66.55702 | 16830 ft | 286 kts | 180° |
| 2026-05-04 00:07 | -20.70314 | -66.55676 | 16662 ft | 272 kts | 185° |
| 2026-05-04 00:07 | -20.72068 | -66.56211 | 16616 ft | 259 kts | 213° |
| 2026-05-04 00:07 | -20.73352 | -66.57572 | 16500 ft | 274 kts | 239° |
| 2026-05-04 00:07 | -20.73866 | -66.58850 | 16371 ft | 289 kts | 255° |
| 2026-05-04 00:08 | -20.73753 | -66.61673 | 16030 ft | 288 kts | 290° |
| 2026-05-04 00:08 | -20.72657 | -66.63404 | 15782 ft | 285 kts | 317° |
| 2026-05-04 00:08 | -20.71539 | -66.64167 | 15603 ft | 283 kts | 336° |
| 2026-05-04 00:08 | -20.69021 | -66.64661 | 15312 ft | 273 kts | 355° |
| 2026-05-04 00:09 | -20.67165 | -66.64744 | 15106 ft | 261 kts | 356° |
| 2026-05-04 00:09 | -20.65958 | -66.64790 | 14953 ft | 253 kts | 355° |
| 2026-05-04 00:09 | -20.64260 | -66.64863 | 14730 ft | 241 kts | 355° |
| 2026-05-04 00:09 | -20.62621 | -66.64944 | 14482 ft | 230 kts | 355° |
| 2026-05-04 00:10 | -20.61052 | -66.65028 | 14253 ft | 222 kts | 354° |
| 2026-05-04 00:10 | -20.59510 | -66.65114 | 14211 ft | 223 kts | 354° |
| 2026-05-04 00:10 | -20.57953 | -66.65202 | 14187 ft | 222 kts | 354° |
| 2026-05-04 00:10 | -20.56455 | -66.65476 | 14137 ft | 216 kts | 330° |
| 2026-05-04 00:11 | -20.55254 | -66.66403 | 14159 ft | 215 kts | 309° |
| 2026-05-04 00:11 | -20.54377 | -66.67676 | 14165 ft | 212 kts | 300° |
| 2026-05-04 00:11 | -20.53595 | -66.69013 | 14151 ft | 211 kts | 300° |
| 2026-05-04 00:11 | -20.52836 | -66.70321 | 14140 ft | 202 kts | 300° |
| 2026-05-04 00:12 | -20.52125 | -66.71548 | 14112 ft | 189 kts | 298° |
| 2026-05-04 00:12 | -20.51445 | -66.72761 | 13896 ft | 195 kts | 298° |
| 2026-05-04 00:12 | -20.50747 | -66.74008 | 13925 ft | 192 kts | 298° |
| 2026-05-04 00:12 | -20.50074 | -66.75204 | 13616 ft | 187 kts | 299° |
| 2026-05-04 00:13 | -20.49412 | -66.76381 | 13380 ft | 189 kts | 299° |
| 2026-05-04 00:13 | -20.48741 | -66.77567 | 13336 ft | 185 kts | 300° |
| 2026-05-04 00:13 | -20.48066 | -66.78736 | 13210 ft | 185 kts | 300° |
| 2026-05-04 00:13 | -20.47420 | -66.79936 | 13045 ft | 188 kts | 297° |
| 2026-05-04 00:14 | -20.46761 | -66.81143 | 12734 ft | 186 kts | 301° |
| 2026-05-04 00:14 | -20.46077 | -66.82290 | 12547 ft | 184 kts | 301° |
| 2026-05-04 00:14 | -20.45419 | -66.83469 | 12232 ft | 182 kts | 302° |
| 2026-05-04 00:14 | -20.44781 | -66.84569 | 12016 ft | 161 kts | 300° |
| 2026-05-04 00:15 | -20.44319 | -66.85388 | 12017 ft | 97 kts | 301° |
| 2026-05-04 00:15 | -20.44091 | -66.85796 | 12015 ft | 24 kts | 304° |
| 2026-05-04 00:15 | -20.44031 | -66.85877 | 12014 ft | 9 kts | 289° |
| 2026-05-04 00:15 | -20.44041 | -66.85885 | 12013 ft | 2 kts | 148° |
| 2026-05-04 00:16 | -20.44057 | -66.85854 | 12010 ft | 10 kts | 120° |
| 2026-05-04 00:16 | -20.44122 | -66.85741 | 12011 ft | 26 kts | 120° |
| 2026-05-04 00:16 | -20.44218 | -66.85558 | 12014 ft | 28 kts | 118° |
| 2026-05-04 00:16 | -20.44319 | -66.85389 | 12017 ft | 26 kts | 121° |
| 2026-05-04 00:17 | -20.44409 | -66.85228 | 12012 ft | 24 kts | 121° |
| 2026-05-04 00:17 | -20.44497 | -66.85073 | 12015 ft | 24 kts | 121° |
| 2026-05-04 00:17 | -20.44574 | -66.84924 | 12008 ft | 23 kts | 107° |
| 2026-05-04 00:17 | -20.44580 | -66.84761 | 12016 ft | 22 kts | 75° |
| 2026-05-04 00:18 | -20.44575 | -66.84607 | 12015 ft | 21 kts | 116° |
| 2026-05-04 00:18 | -20.44649 | -66.84476 | 12015 ft | 20 kts | 119° |
| 2026-05-04 00:18 | -20.44629 | -66.84388 | 12015 ft | 11 kts | 33° |
| 2026-05-04 00:18 | -20.44583 | -66.84386 | 12014 ft | 6 kts | 9° |
| 2026-05-04 00:19 | -20.44545 | -66.84368 | 12016 ft | 6 kts | 27° |
| 2026-05-04 00:19 | -20.44541 | -66.84363 | 12016 ft | 1 kts | 63° |
| 2026-05-04 00:19 | -20.44545 | -66.84352 | 12011 ft | 1 kts | 135° |
| 2026-05-04 00:19 | -20.44551 | -66.84359 | 12008 ft | 0 kts | 246° |